Time;durP1;ratioP1;P1;durP2;ratioP2;P2;SDS_P1;SDS_P2;PMS_P1;PMS_P2;Temp;Humidity;BMP_temperature;BMP_pressure;BME280_temperature;BME280_humidity;BME280_pressure;Samples;Min_cycle;Max_cycle;Signal;HPM_P1;HPM_P2
2022/01/29 00:02:22;;;;;;;3.15;1.52;;;;;;;;;;4378042;32;20164;-54
2022/01/29 00:04:51;;;;;;;4.32;1.48;;;;;;;;;;4375841;32;20043;-51
2022/01/29 00:07:19;;;;;;;5.97;1.87;;;;;;;;;;4380486;32;20478;-54
2022/01/29 00:09:48;;;;;;;4.57;1.92;;;;;;;;;;4377898;32;20035;-54
2022/01/29 00:12:17;;;;;;;3.70;1.62;;;;;;;;;;4380411;32;20031;-54
2022/01/29 00:14:46;;;;;;;3.95;1.75;;;;;;;;;;4382894;32;20538;-51
2022/01/29 00:17:14;;;;;;;5.00;1.58;;;;;;;;;;4378955;32;20064;-53
2022/01/29 00:19:43;;;;;;;3.28;1.70;;;;;;;;;;4381985;32;20055;-51
2022/01/29 00:22:11;;;;;;;3.50;1.67;;;;;;;;;;4380002;32;20038;-52
2022/01/29 00:24:40;;;;;;;4.00;1.62;;;;;;;;;;4381156;32;20055;-52
2022/01/29 00:27:10;;;;;;;3.87;1.80;;;;;;;;;;4383137;32;20069;-51
2022/01/29 00:29:40;;;;;;;4.85;1.92;;;;;;;;;;4377823;32;20023;-53
2022/01/29 00:32:10;;;;;;;4.87;1.55;;;;;;;;;;4376245;32;20062;-51
2022/01/29 00:34:39;;;;;;;2.97;1.42;;;;;;;;;;4378303;32;20077;-52
2022/01/29 00:37:07;;;;;;;3.28;1.50;;;;;;;;;;4381963;32;20055;-51
2022/01/29 00:39:36;;;;;;;4.75;1.70;;;;;;;;;;4374607;32;20091;-52
2022/01/29 00:42:05;;;;;;;5.10;1.77;;;;;;;;;;4379122;32;20063;-52
2022/01/29 00:44:44;;;;;;;3.37;1.58;;;;;;;;;;4378879;32;20055;-54
2022/01/29 00:47:13;;;;;;;2.35;1.40;;;;;;;;;;4380521;32;20089;-52
2022/01/29 00:49:42;;;;;;;3.78;1.65;;;;;;;;;;4381931;32;20465;-53
2022/01/29 00:52:10;;;;;;;5.32;1.67;;;;;;;;;;4381600;32;20327;-54
2022/01/29 00:54:39;;;;;;;4.10;1.60;;;;;;;;;;4380931;32;20084;-55
2022/01/29 00:57:07;;;;;;;5.43;1.70;;;;;;;;;;4378808;32;20043;-54
2022/01/29 00:59:36;;;;;;;3.72;1.73;;;;;;;;;;4378776;32;20031;-52
2022/01/29 01:02:07;;;;;;;3.33;1.15;;;;;;;;;;4376261;32;20085;-55
2022/01/29 01:04:38;;;;;;;4.35;1.52;;;;;;;;;;4375650;32;20134;-53
2022/01/29 01:07:08;;;;;;;5.30;1.70;;;;;;;;;;4376272;32;20502;-53
2022/01/29 01:09:37;;;;;;;2.83;1.42;;;;;;;;;;4381360;32;20078;-51
2022/01/29 01:12:05;;;;;;;3.60;1.52;;;;;;;;;;4379156;32;20035;-55
2022/01/29 01:14:36;;;;;;;3.60;1.80;;;;;;;;;;4381422;32;20070;-54
2022/01/29 01:17:05;;;;;;;4.53;1.60;;;;;;;;;;4384299;32;20042;-54
2022/01/29 01:19:33;;;;;;;4.72;1.75;;;;;;;;;;4378583;32;20067;-52
2022/01/29 01:22:02;;;;;;;4.15;1.60;;;;;;;;;;4379396;32;20034;-53
2022/01/29 01:24:31;;;;;;;2.87;1.62;;;;;;;;;;4380656;32;20047;-54
2022/01/29 01:26:59;;;;;;;3.20;1.50;;;;;;;;;;4378142;32;20097;-52
2022/01/29 01:29:27;;;;;;;5.15;1.48;;;;;;;;;;4376445;32;20039;-53
2022/01/29 01:31:56;;;;;;;3.28;1.70;;;;;;;;;;4376771;32;20136;-51
2022/01/29 01:34:27;;;;;;;3.45;1.60;;;;;;;;;;4381273;32;20397;-54
2022/01/29 01:37:02;;;;;;;5.95;1.65;;;;;;;;;;4377723;32;20168;-53
2022/01/29 01:39:33;;;;;;;3.33;1.47;;;;;;;;;;4378753;32;20075;-53
2022/01/29 01:42:07;;;;;;;2.90;1.40;;;;;;;;;;4380686;32;20142;-51
2022/01/29 01:44:45;;;;;;;3.55;1.52;;;;;;;;;;4381524;32;20047;-53
2022/01/29 01:47:14;;;;;;;4.07;1.30;;;;;;;;;;4379977;32;20076;-54
2022/01/29 01:49:43;;;;;;;2.22;1.45;;;;;;;;;;4376275;32;20067;-54
2022/01/29 01:52:12;;;;;;;3.50;1.70;;;;;;;;;;4377901;32;20491;-54
2022/01/29 01:54:42;;;;;;;2.50;1.42;;;;;;;;;;4379877;32;20036;-54
2022/01/29 01:57:11;;;;;;;3.40;1.75;;;;;;;;;;4379540;32;20097;-51
2022/01/29 01:59:39;;;;;;;3.05;1.50;;;;;;;;;;4380988;32;20054;-51
2022/01/29 02:02:07;;;;;;;4.85;1.75;;;;;;;;;;4376344;32;20079;-54
2022/01/29 02:04:37;;;;;;;4.62;1.65;;;;;;;;;;4375094;32;20133;-53
2022/01/29 02:07:06;;;;;;;6.85;1.90;;;;;;;;;;4378831;32;20047;-51
2022/01/29 02:09:37;;;;;;;5.35;1.75;;;;;;;;;;4376899;32;20695;-52
2022/01/29 02:12:08;;;;;;;7.85;1.90;;;;;;;;;;4380747;32;20440;-52
2022/01/29 02:14:39;;;;;;;8.80;1.80;;;;;;;;;;4376692;32;20048;-52
2022/01/29 02:17:09;;;;;;;6.50;1.80;;;;;;;;;;4378741;32;20073;-51
2022/01/29 02:19:38;;;;;;;8.50;1.90;;;;;;;;;;4379184;32;20093;-53
2022/01/29 02:22:06;;;;;;;7.40;2.15;;;;;;;;;;4378840;32;20075;-54
2022/01/29 02:24:36;;;;;;;13.27;2.47;;;;;;;;;;4379215;32;20418;-52
2022/01/29 02:27:04;;;;;;;8.30;2.00;;;;;;;;;;4380175;32;20393;-54
2022/01/29 02:29:34;;;;;;;8.93;2.10;;;;;;;;;;4376234;32;20068;-55
2022/01/29 02:32:03;;;;;;;9.80;2.72;;;;;;;;;;4379832;32;20480;-52
2022/01/29 02:34:32;;;;;;;9.07;2.17;;;;;;;;;;4380319;32;23512;-51
2022/01/29 02:37:01;;;;;;;11.05;2.20;;;;;;;;;;4377852;32;20055;-51
2022/01/29 02:39:29;;;;;;;16.40;2.40;;;;;;;;;;4379039;32;20115;-54
2022/01/29 02:41:59;;;;;;;13.93;2.67;;;;;;;;;;4378428;32;20735;-51
2022/01/29 02:44:27;;;;;;;11.80;2.42;;;;;;;;;;4377857;32;20083;-54
2022/01/29 02:47:08;;;;;;;17.12;2.90;;;;;;;;;;4378641;32;20165;-52
2022/01/29 02:49:37;;;;;;;10.88;2.15;;;;;;;;;;4377514;32;20105;-52
2022/01/29 02:52:06;;;;;;;12.65;2.30;;;;;;;;;;4376910;32;20039;-54
2022/01/29 02:54:35;;;;;;;11.77;2.85;;;;;;;;;;4378727;32;20047;-55
2022/01/29 02:57:03;;;;;;;14.77;2.87;;;;;;;;;;4376703;32;20070;-55
2022/01/29 02:59:32;;;;;;;12.07;2.53;;;;;;;;;;4374671;32;20363;-52
2022/01/29 03:02:00;;;;;;;11.75;2.30;;;;;;;;;;4380022;32;20048;-55
2022/01/29 03:04:28;;;;;;;13.70;2.50;;;;;;;;;;4376239;32;20069;-54
2022/01/29 03:06:57;;;;;;;11.12;2.80;;;;;;;;;;4376515;32;20078;-55
2022/01/29 03:09:25;;;;;;;14.13;2.45;;;;;;;;;;4379871;32;20417;-55
2022/01/29 03:11:56;;;;;;;16.23;3.10;;;;;;;;;;4379454;32;20138;-55
2022/01/29 03:14:24;;;;;;;14.25;2.50;;;;;;;;;;4378586;32;20074;-51
2022/01/29 03:16:52;;;;;;;14.18;2.65;;;;;;;;;;4376868;32;20453;-55
2022/01/29 03:19:20;;;;;;;17.77;2.90;;;;;;;;;;4377329;32;20105;-52
2022/01/29 03:21:49;;;;;;;20.62;3.47;;;;;;;;;;4380481;32;20452;-52
2022/01/29 03:24:17;;;;;;;22.48;3.42;;;;;;;;;;4380647;32;20047;-55
2022/01/29 03:26:45;;;;;;;22.70;3.58;;;;;;;;;;4377364;32;20070;-54
2022/01/29 03:29:14;;;;;;;16.40;3.37;;;;;;;;;;4375481;32;20604;-53
2022/01/29 03:31:42;;;;;;;27.90;3.87;;;;;;;;;;4376987;32;20035;-52
2022/01/29 03:34:10;;;;;;;21.05;3.30;;;;;;;;;;4376253;32;20035;-51
2022/01/29 03:36:39;;;;;;;19.77;4.20;;;;;;;;;;4376645;32;20082;-54
2022/01/29 03:39:07;;;;;;;22.05;3.60;;;;;;;;;;4377507;32;20475;-52
2022/01/29 03:41:36;;;;;;;20.33;3.62;;;;;;;;;;4378975;32;20044;-55
2022/01/29 03:44:07;;;;;;;19.12;3.30;;;;;;;;;;4377539;32;20422;-55
2022/01/29 03:46:37;;;;;;;23.58;4.57;;;;;;;;;;4376523;32;20035;-55
2022/01/29 03:49:05;;;;;;;26.73;3.87;;;;;;;;;;4378086;32;20089;-55
2022/01/29 03:51:33;;;;;;;25.73;3.83;;;;;;;;;;4378592;32;20528;-55
2022/01/29 03:54:02;;;;;;;23.65;3.87;;;;;;;;;;4377495;32;21015;-52
2022/01/29 03:56:30;;;;;;;34.15;5.25;;;;;;;;;;4379171;32;20090;-52
2022/01/29 03:58:58;;;;;;;33.67;4.18;;;;;;;;;;4377888;32;20042;-54
2022/01/29 04:01:27;;;;;;;33.10;4.43;;;;;;;;;;4378644;32;20105;-55
2022/01/29 04:03:55;;;;;;;37.83;5.40;;;;;;;;;;4376623;32;20675;-54
2022/01/29 04:06:24;;;;;;;45.70;5.85;;;;;;;;;;4384970;32;20092;-55
2022/01/29 04:08:52;;;;;;;35.30;5.22;;;;;;;;;;4377714;32;20501;-53
2022/01/29 04:11:22;;;;;;;38.85;5.30;;;;;;;;;;4382686;32;20053;-53
2022/01/29 04:13:50;;;;;;;39.95;5.90;;;;;;;;;;4374808;32;20045;-53
2022/01/29 04:16:19;;;;;;;42.20;5.72;;;;;;;;;;4379320;32;20090;-55
2022/01/29 04:18:47;;;;;;;50.45;6.75;;;;;;;;;;4376353;32;20062;-55
2022/01/29 04:21:15;;;;;;;57.13;6.50;;;;;;;;;;4379040;32;20059;-51
2022/01/29 04:23:44;;;;;;;53.60;7.07;;;;;;;;;;4383385;32;20506;-52
2022/01/29 04:26:12;;;;;;;51.90;6.90;;;;;;;;;;4383831;32;20035;-51
2022/01/29 04:28:43;;;;;;;63.15;7.25;;;;;;;;;;4383054;32;20053;-54
2022/01/29 04:31:18;;;;;;;46.80;6.82;;;;;;;;;;4378077;32;20073;-54
2022/01/29 04:33:47;;;;;;;59.40;8.02;;;;;;;;;;4376723;32;20561;-55
2022/01/29 04:36:16;;;;;;;65.35;7.95;;;;;;;;;;4378074;32;20501;-54
2022/01/29 04:38:44;;;;;;;70.70;9.20;;;;;;;;;;4381058;32;20423;-52
2022/01/29 04:41:13;;;;;;;71.50;8.05;;;;;;;;;;4387931;32;20092;-55
2022/01/29 04:43:41;;;;;;;64.55;8.20;;;;;;;;;;4384079;32;20027;-52
2022/01/29 04:46:09;;;;;;;59.70;8.38;;;;;;;;;;4378894;32;20425;-54
2022/01/29 04:48:38;;;;;;;81.68;9.85;;;;;;;;;;4380667;32;20141;-52
2022/01/29 04:51:07;;;;;;;72.05;9.27;;;;;;;;;;4381743;32;21852;-55
2022/01/29 04:53:35;;;;;;;78.35;9.90;;;;;;;;;;4382075;32;20096;-52
2022/01/29 04:56:04;;;;;;;88.65;9.73;;;;;;;;;;4378961;32;20062;-53
2022/01/29 04:58:33;;;;;;;86.03;10.02;;;;;;;;;;4379500;32;20039;-51
2022/01/29 05:01:01;;;;;;;91.60;11.15;;;;;;;;;;4387370;32;20035;-52
2022/01/29 05:03:29;;;;;;;82.75;9.68;;;;;;;;;;4378400;32;20051;-51
2022/01/29 05:05:58;;;;;;;95.93;10.95;;;;;;;;;;4378211;32;20049;-54
2022/01/29 05:08:26;;;;;;;81.70;11.82;;;;;;;;;;4377186;32;20032;-53
2022/01/29 05:10:55;;;;;;;96.12;11.38;;;;;;;;;;4380892;32;20045;-52
2022/01/29 05:13:27;;;;;;;91.05;10.45;;;;;;;;;;4390466;32;20425;-52
2022/01/29 05:27:07;;;;;;;105.95;13.32;;;;;;;;;;4387256;32;20054;-55
2022/01/29 05:29:37;;;;;;;103.80;12.37;;;;;;;;;;4390082;32;20071;-52
2022/01/29 05:32:07;;;;;;;96.05;12.30;;;;;;;;;;4400836;32;20098;-53
2022/01/29 05:34:35;;;;;;;103.22;13.70;;;;;;;;;;4388590;32;20121;-53
2022/01/29 05:37:04;;;;;;;124.40;13.77;;;;;;;;;;4382099;32;20039;-53
2022/01/29 05:39:32;;;;;;;102.00;13.15;;;;;;;;;;4377810;32;20388;-51
2022/01/29 05:42:01;;;;;;;103.78;11.90;;;;;;;;;;4373935;32;20055;-51
2022/01/29 05:44:29;;;;;;;114.53;13.50;;;;;;;;;;4389872;32;20031;-51
2022/01/29 05:46:57;;;;;;;125.85;14.27;;;;;;;;;;4379884;32;20131;-54
2022/01/29 05:49:26;;;;;;;118.62;13.75;;;;;;;;;;4378972;32;20050;-54
2022/01/29 05:51:54;;;;;;;125.07;14.75;;;;;;;;;;4391705;32;20374;-52
2022/01/29 05:54:23;;;;;;;109.93;14.02;;;;;;;;;;4387108;32;20466;-50
2022/01/29 05:56:51;;;;;;;111.62;14.57;;;;;;;;;;4391016;32;20055;-51
2022/01/29 05:59:20;;;;;;;117.43;14.23;;;;;;;;;;4383892;32;20031;-50
2022/01/29 06:01:48;;;;;;;119.87;14.80;;;;;;;;;;4390831;32;20035;-53
2022/01/29 06:04:17;;;;;;;131.00;15.30;;;;;;;;;;4390571;32;20379;-51
2022/01/29 06:06:45;;;;;;;122.78;15.40;;;;;;;;;;4388948;32;20034;-51
2022/01/29 06:09:13;;;;;;;120.10;13.93;;;;;;;;;;4391920;32;20034;-51
2022/01/29 06:11:42;;;;;;;117.22;14.80;;;;;;;;;;4386588;32;20403;-54
2022/01/29 06:14:12;;;;;;;118.35;14.40;;;;;;;;;;4380114;32;20043;-52
2022/01/29 06:16:40;;;;;;;127.80;15.15;;;;;;;;;;4384421;32;20410;-54
2022/01/29 06:19:09;;;;;;;122.47;14.52;;;;;;;;;;4388001;32;20059;-54
2022/01/29 06:21:37;;;;;;;116.93;15.57;;;;;;;;;;4380487;32;20078;-50
2022/01/29 06:24:06;;;;;;;117.68;15.10;;;;;;;;;;4392081;32;20094;-51
2022/01/29 06:26:34;;;;;;;117.65;14.07;;;;;;;;;;4389768;32;20323;-50
2022/01/29 06:29:04;;;;;;;120.03;12.95;;;;;;;;;;4392414;32;20045;-53
2022/01/29 06:31:32;;;;;;;114.50;15.27;;;;;;;;;;4389413;32;20472;-50
2022/01/29 06:34:01;;;;;;;105.12;12.95;;;;;;;;;;4392410;32;20051;-51
2022/01/29 06:36:29;;;;;;;100.18;13.77;;;;;;;;;;4374129;32;20051;-54
2022/01/29 06:38:57;;;;;;;102.87;13.40;;;;;;;;;;4377649;32;20087;-51
2022/01/29 06:41:25;;;;;;;112.03;13.55;;;;;;;;;;4386477;32;20462;-53
2022/01/29 06:43:54;;;;;;;110.75;14.27;;;;;;;;;;4383430;32;20031;-53
2022/01/29 06:46:22;;;;;;;107.60;14.40;;;;;;;;;;4377386;32;20061;-51
2022/01/29 06:48:52;;;;;;;112.62;13.70;;;;;;;;;;4375437;32;20457;-50
2022/01/29 06:51:20;;;;;;;110.72;13.82;;;;;;;;;;4388106;32;20429;-54
2022/01/29 06:53:48;;;;;;;100.65;12.98;;;;;;;;;;4386157;32;20096;-53
2022/01/29 06:56:17;;;;;;;95.62;12.13;;;;;;;;;;4387141;32;20088;-50
2022/01/29 06:58:45;;;;;;;103.57;13.43;;;;;;;;;;4389824;32;20053;-53
2022/01/29 07:01:33;;;;;;;100.50;12.82;;;;;;;;;;4388872;32;20094;-52
2022/01/29 07:04:02;;;;;;;77.65;12.68;;;;;;;;;;4387079;32;20398;-54
2022/01/29 07:06:30;;;;;;;97.15;12.75;;;;;;;;;;4380393;32;20066;-52
2022/01/29 07:08:59;;;;;;;93.78;12.70;;;;;;;;;;4392137;32;20394;-51
2022/01/29 07:11:27;;;;;;;89.75;12.68;;;;;;;;;;4386793;32;20543;-50
2022/01/29 07:14:04;;;;;;;89.40;12.80;;;;;;;;;;4388445;32;20102;-51
2022/01/29 07:16:34;;;;;;;109.22;13.80;;;;;;;;;;4392431;32;20088;-51
2022/01/29 07:19:03;;;;;;;83.70;12.37;;;;;;;;;;4383080;32;20069;-52
2022/01/29 07:21:31;;;;;;;85.97;11.18;;;;;;;;;;4376272;32;20402;-54
2022/01/29 07:24:00;;;;;;;78.55;12.23;;;;;;;;;;4391580;32;20035;-53
2022/01/29 07:26:28;;;;;;;81.05;11.68;;;;;;;;;;4392021;32;20065;-53
2022/01/29 07:28:57;;;;;;;81.63;11.82;;;;;;;;;;4390733;32;20395;-50
2022/01/29 07:31:25;;;;;;;82.03;11.88;;;;;;;;;;4392086;32;20066;-51
2022/01/29 07:33:54;;;;;;;77.05;12.05;;;;;;;;;;4391412;32;20035;-50
2022/01/29 07:36:23;;;;;;;93.47;11.77;;;;;;;;;;4392131;32;20422;-53
2022/01/29 07:38:51;;;;;;;69.57;11.65;;;;;;;;;;4389006;32;20046;-51
2022/01/29 07:41:19;;;;;;;80.43;12.95;;;;;;;;;;4390784;32;20066;-50
2022/01/29 07:43:47;;;;;;;86.63;13.18;;;;;;;;;;4391450;32;20070;-52
2022/01/29 07:46:16;;;;;;;83.87;11.77;;;;;;;;;;4391476;32;20043;-51
2022/01/29 07:48:49;;;;;;;84.00;11.77;;;;;;;;;;4389428;32;20089;-54
2022/01/29 07:51:17;;;;;;;77.32;13.00;;;;;;;;;;4388875;32;20062;-51
2022/01/29 07:53:46;;;;;;;82.78;11.80;;;;;;;;;;4392293;32;20044;-51
2022/01/29 07:56:14;;;;;;;82.85;12.70;;;;;;;;;;4394740;32;20110;-53
2022/01/29 07:58:42;;;;;;;74.90;10.95;;;;;;;;;;4391887;32;20038;-53
2022/01/29 08:01:13;;;;;;;73.72;12.45;;;;;;;;;;4391605;32;20039;-53
2022/01/29 08:03:46;;;;;;;83.03;12.35;;;;;;;;;;4394648;32;20047;-51
2022/01/29 08:06:15;;;;;;;84.50;11.65;;;;;;;;;;4394864;32;20043;-52
2022/01/29 08:08:43;;;;;;;93.20;12.48;;;;;;;;;;4387421;32;20096;-55
2022/01/29 08:11:12;;;;;;;68.87;11.48;;;;;;;;;;4393563;32;20407;-51
2022/01/29 08:13:40;;;;;;;79.30;12.77;;;;;;;;;;4392034;32;20039;-51
2022/01/29 08:16:09;;;;;;;80.12;11.85;;;;;;;;;;4394709;32;20450;-51
2022/01/29 08:18:37;;;;;;;89.07;13.10;;;;;;;;;;4393980;32;20019;-54
2022/01/29 08:21:05;;;;;;;80.97;13.13;;;;;;;;;;4405015;32;20090;-54
2022/01/29 08:23:33;;;;;;;75.97;11.88;;;;;;;;;;4409503;32;20038;-53
2022/01/29 08:26:02;;;;;;;80.30;11.98;;;;;;;;;;4407806;32;20444;-53
2022/01/29 08:28:30;;;;;;;86.93;11.95;;;;;;;;;;4409437;32;20113;-52
2022/01/29 08:30:58;;;;;;;80.50;12.20;;;;;;;;;;4408983;32;20066;-53
2022/01/29 08:33:27;;;;;;;80.80;13.40;;;;;;;;;;4409298;32;20332;-53
2022/01/29 08:35:57;;;;;;;88.60;12.55;;;;;;;;;;4409890;32;20054;-53
2022/01/29 08:38:26;;;;;;;83.82;12.23;;;;;;;;;;4410077;32;20051;-55
2022/01/29 08:40:55;;;;;;;76.70;12.02;;;;;;;;;;4408956;32;20094;-54
2022/01/29 08:43:23;;;;;;;82.55;12.65;;;;;;;;;;4409964;32;20083;-55
2022/01/29 08:45:52;;;;;;;91.30;12.45;;;;;;;;;;4409945;32;20049;-51
2022/01/29 08:48:21;;;;;;;74.10;11.05;;;;;;;;;;4409560;32;20337;-54
2022/01/29 08:50:50;;;;;;;71.32;12.75;;;;;;;;;;4394594;32;20048;-54
2022/01/29 08:53:19;;;;;;;77.97;12.82;;;;;;;;;;4390436;32;20468;-52
2022/01/29 08:55:47;;;;;;;76.65;12.02;;;;;;;;;;4383371;32;20117;-52
2022/01/29 08:58:15;;;;;;;81.70;12.70;;;;;;;;;;4376687;32;20114;-55
2022/01/29 09:00:45;;;;;;;61.22;11.35;;;;;;;;;;4384150;32;20050;-52
2022/01/29 09:03:17;;;;;;;69.43;12.15;;;;;;;;;;4376309;32;20039;-54
2022/01/29 09:05:47;;;;;;;75.60;12.60;;;;;;;;;;4382185;32;20442;-55
2022/01/29 09:08:16;;;;;;;77.70;12.88;;;;;;;;;;4385987;32;20093;-52
2022/01/29 09:10:44;;;;;;;84.18;12.40;;;;;;;;;;4378926;32;20073;-52
2022/01/29 09:13:14;;;;;;;85.07;12.65;;;;;;;;;;4377115;32;20031;-54
2022/01/29 09:15:43;;;;;;;82.18;12.52;;;;;;;;;;4383860;32;20053;-53
2022/01/29 09:18:11;;;;;;;70.60;11.63;;;;;;;;;;4386319;32;20023;-52
2022/01/29 09:20:40;;;;;;;84.70;12.57;;;;;;;;;;4379784;32;20086;-52
2022/01/29 09:23:09;;;;;;;61.45;11.05;;;;;;;;;;4385935;32;20081;-52
2022/01/29 09:25:37;;;;;;;71.07;11.00;;;;;;;;;;4378699;32;20061;-52
2022/01/29 09:28:07;;;;;;;75.40;12.27;;;;;;;;;;4384072;32;20023;-54
2022/01/29 09:30:36;;;;;;;72.75;11.80;;;;;;;;;;4379547;32;20039;-55
2022/01/29 09:33:04;;;;;;;86.43;12.57;;;;;;;;;;4378287;32;20047;-52
2022/01/29 09:35:33;;;;;;;65.55;12.07;;;;;;;;;;4383509;32;20039;-52
2022/01/29 09:38:01;;;;;;;70.82;11.50;;;;;;;;;;4386448;32;20042;-52
2022/01/29 09:40:29;;;;;;;74.70;11.60;;;;;;;;;;4384397;32;20124;-55
2022/01/29 09:43:00;;;;;;;67.93;12.57;;;;;;;;;;4386222;32;20437;-51
2022/01/29 09:45:28;;;;;;;74.82;12.63;;;;;;;;;;4382453;32;20054;-55
2022/01/29 09:48:05;;;;;;;83.70;13.18;;;;;;;;;;4384772;32;20045;-53
2022/01/29 09:50:36;;;;;;;74.35;12.85;;;;;;;;;;4383962;32;20059;-55
2022/01/29 09:53:05;;;;;;;69.93;12.00;;;;;;;;;;4380581;32;20039;-53
2022/01/29 09:55:33;;;;;;;93.32;14.07;;;;;;;;;;4383865;32;20045;-53
2022/01/29 09:58:02;;;;;;;84.93;13.27;;;;;;;;;;4375397;32;20027;-52
2022/01/29 10:00:31;;;;;;;76.55;13.25;;;;;;;;;;4383402;32;20128;-52
2022/01/29 10:03:13;;;;;;;86.45;13.68;;;;;;;;;;4379901;32;20132;-52
2022/01/29 10:05:43;;;;;;;84.95;14.10;;;;;;;;;;4388155;32;20100;-55
2022/01/29 10:08:12;;;;;;;76.45;13.07;;;;;;;;;;4373516;32;20074;-51
2022/01/29 10:10:40;;;;;;;91.22;13.32;;;;;;;;;;4379035;32;20086;-51
2022/01/29 10:13:27;;;;;;;76.07;13.00;;;;;;;;;;4378787;32;20046;-52
2022/01/29 10:16:04;;;;;;;73.03;12.13;;;;;;;;;;4376073;32;20062;-54
2022/01/29 10:18:33;;;;;;;76.82;12.25;;;;;;;;;;4373930;32;20344;-54
2022/01/29 10:21:09;;;;;;;81.68;14.00;;;;;;;;;;4377741;32;20062;-53
2022/01/29 10:23:38;;;;;;;76.87;12.75;;;;;;;;;;4386107;32;20065;-52
2022/01/29 10:26:07;;;;;;;86.78;13.07;;;;;;;;;;4381712;32;20039;-53
2022/01/29 10:28:35;;;;;;;75.05;12.73;;;;;;;;;;4381258;32;20060;-52
2022/01/29 10:31:05;;;;;;;71.40;12.50;;;;;;;;;;4380557;32;20500;-53
2022/01/29 10:33:38;;;;;;;72.32;13.20;;;;;;;;;;4374593;32;20049;-52
2022/01/29 10:36:10;;;;;;;85.30;12.85;;;;;;;;;;4379515;32;20103;-54
2022/01/29 10:38:41;;;;;;;78.85;13.23;;;;;;;;;;4376457;32;20039;-52
2022/01/29 10:41:24;;;;;;;70.05;12.98;;;;;;;;;;4374994;32;20039;-53
2022/01/29 10:46:43;;;;;;;84.50;14.43;;;;;;;;;;4376431;32;20042;-55
2022/01/29 10:49:18;;;;;;;88.30;14.40;;;;;;;;;;4378061;32;20363;-54
2022/01/29 10:51:56;;;;;;;79.50;13.23;;;;;;;;;;4378854;32;20086;-55
2022/01/29 10:54:25;;;;;;;85.80;13.15;;;;;;;;;;4375157;32;20040;-53
2022/01/29 10:56:55;;;;;;;65.87;12.25;;;;;;;;;;4379641;32;20099;-52
2022/01/29 10:59:23;;;;;;;83.25;13.43;;;;;;;;;;4374950;32;20039;-54
2022/01/29 11:01:57;;;;;;;81.60;13.43;;;;;;;;;;4377612;32;20091;-53
2022/01/29 11:04:28;;;;;;;87.75;14.73;;;;;;;;;;4376715;32;20069;-52
2022/01/29 11:07:00;;;;;;;83.78;13.85;;;;;;;;;;4381814;32;20066;-52
2022/01/29 11:09:29;;;;;;;81.60;14.00;;;;;;;;;;4377216;32;20142;-52
2022/01/29 11:11:58;;;;;;;84.05;14.32;;;;;;;;;;4375831;32;20090;-53
2022/01/29 11:14:27;;;;;;;78.45;14.18;;;;;;;;;;4375095;32;20097;-53
2022/01/29 11:16:55;;;;;;;78.97;16.02;;;;;;;;;;4378592;32;20056;-52
2022/01/29 11:19:24;;;;;;;77.00;13.73;;;;;;;;;;4371161;32;20027;-53
2022/01/29 11:21:54;;;;;;;84.03;13.68;;;;;;;;;;4377524;32;20031;-52
2022/01/29 11:24:24;;;;;;;86.82;14.98;;;;;;;;;;4381153;32;20369;-55
2022/01/29 11:26:53;;;;;;;79.80;14.52;;;;;;;;;;4382472;32;20482;-52
2022/01/29 11:29:27;;;;;;;82.95;14.52;;;;;;;;;;4382662;32;20100;-52
2022/01/29 11:32:15;;;;;;;91.70;15.48;;;;;;;;;;4377541;32;20378;-54
2022/01/29 11:35:01;;;;;;;81.03;13.65;;;;;;;;;;4378403;32;20043;-51
2022/01/29 11:37:41;;;;;;;73.80;12.98;;;;;;;;;;4378272;32;20140;-54
2022/01/29 11:40:11;;;;;;;79.10;13.55;;;;;;;;;;4389368;32;20390;-53
2022/01/29 11:43:00;;;;;;;89.97;15.50;;;;;;;;;;4379226;32;20423;-54
2022/01/29 11:45:35;;;;;;;86.75;15.10;;;;;;;;;;4382827;32;20077;-51
2022/01/29 11:48:05;;;;;;;79.30;14.45;;;;;;;;;;4380101;32;20061;-53
2022/01/29 11:50:33;;;;;;;77.43;13.50;;;;;;;;;;4381768;32;20096;-54
2022/01/29 11:53:02;;;;;;;77.30;14.63;;;;;;;;;;4386052;32;20075;-51
2022/01/29 11:55:39;;;;;;;84.22;14.60;;;;;;;;;;4383534;32;20515;-52
2022/01/29 11:58:16;;;;;;;86.12;13.98;;;;;;;;;;4382554;32;20094;-53
2022/01/29 12:00:46;;;;;;;94.78;15.48;;;;;;;;;;4372352;32;20106;-52
2022/01/29 12:03:44;;;;;;;73.65;14.20;;;;;;;;;;4382239;32;20385;-52
2022/01/29 12:06:19;;;;;;;84.40;13.95;;;;;;;;;;4376238;32;20054;-52
2022/01/29 12:08:47;;;;;;;;;;;;;;;;;;4384821;32;20433;-51
2022/01/29 12:11:18;;;;;;;88.87;13.73;;;;;;;;;;4385404;32;20351;-54
2022/01/29 12:14:05;;;;;;;76.97;14.30;;;;;;;;;;4384027;32;20050;-53
2022/01/29 12:16:54;;;;;;;86.30;14.40;;;;;;;;;;4379859;32;20093;-52
2022/01/29 12:19:35;;;;;;;84.87;14.20;;;;;;;;;;4381094;32;20426;-51
2022/01/29 12:22:14;;;;;;;82.05;15.13;;;;;;;;;;4378727;32;20059;-51
2022/01/29 12:24:48;;;;;;;79.60;11.82;;;;;;;;;;4377447;32;20043;-51
2022/01/29 12:27:17;;;;;;;87.37;16.35;;;;;;;;;;4378986;32;20435;-51
2022/01/29 12:29:45;;;;;;;93.37;14.80;;;;;;;;;;4385112;32;20055;-51
2022/01/29 12:32:14;;;;;;;69.85;13.23;;;;;;;;;;4385468;32;20099;-51
2022/01/29 12:34:54;;;;;;;83.18;13.48;;;;;;;;;;4380886;32;20063;-52
2022/01/29 12:37:22;;;;;;;80.75;13.70;;;;;;;;;;4380632;32;20064;-53
2022/01/29 12:40:06;;;;;;;83.40;14.70;;;;;;;;;;4383943;32;20098;-53
2022/01/29 12:42:43;;;;;;;69.65;13.82;;;;;;;;;;4390759;32;20058;-50
2022/01/29 12:45:12;;;;;;;87.72;15.13;;;;;;;;;;4386339;32;20098;-51
2022/01/29 12:47:40;;;;;;;87.53;14.13;;;;;;;;;;4387032;32;20038;-51
2022/01/29 12:50:09;;;;;;;70.20;13.45;;;;;;;;;;4382173;32;20110;-51
2022/01/29 12:52:37;;;;;;;80.70;14.52;;;;;;;;;;4380788;32;20048;-52
2022/01/29 12:55:06;;;;;;;81.95;14.73;;;;;;;;;;4377260;32;20103;-51
2022/01/29 12:57:47;;;;;;;87.15;15.02;;;;;;;;;;4379114;32;20039;-54
2022/01/29 13:00:17;;;;;;;73.15;14.65;;;;;;;;;;4376032;32;20035;-51
2022/01/29 13:02:47;;;;;;;86.97;13.85;;;;;;;;;;4379563;32;20027;-51
2022/01/29 13:05:16;;;;;;;82.40;13.93;;;;;;;;;;4379673;32;20118;-50
2022/01/29 13:07:47;;;;;;;77.60;14.38;;;;;;;;;;4382406;32;20094;-50
2022/01/29 13:10:15;;;;;;;98.05;15.38;;;;;;;;;;4384885;32;20379;-52
2022/01/29 13:12:44;;;;;;;87.90;14.63;;;;;;;;;;4375468;32;20066;-51
2022/01/29 13:15:14;;;;;;;80.18;14.13;;;;;;;;;;4376840;32;20023;-50
2022/01/29 13:17:44;;;;;;;72.47;14.10;;;;;;;;;;4380421;32;20035;-51
2022/01/29 13:20:14;;;;;;;87.03;14.87;;;;;;;;;;4382333;32;20093;-51
2022/01/29 13:22:42;;;;;;;105.07;16.15;;;;;;;;;;4380150;32;20043;-50
2022/01/29 13:25:13;;;;;;;88.03;13.90;;;;;;;;;;4383111;32;20051;-51
2022/01/29 13:27:43;;;;;;;90.07;14.40;;;;;;;;;;4382059;32;20088;-54
2022/01/29 13:30:19;;;;;;;97.22;16.25;;;;;;;;;;4388810;32;20124;-52
2022/01/29 13:32:49;;;;;;;83.22;14.10;;;;;;;;;;4384017;32;20066;-53
2022/01/29 13:35:31;;;;;;;89.60;14.70;;;;;;;;;;4387023;32;20051;-51
2022/01/29 13:38:08;;;;;;;77.57;12.63;;;;;;;;;;4387640;32;20043;-50
2022/01/29 13:40:44;;;;;;;75.60;13.75;;;;;;;;;;4378368;32;20093;-51
2022/01/29 13:43:16;;;;;;;74.62;13.73;;;;;;;;;;4383371;32;20492;-52
2022/01/29 13:45:48;;;;;;;83.97;14.45;;;;;;;;;;4379547;32;20081;-51
2022/01/29 13:48:17;;;;;;;76.07;13.45;;;;;;;;;;4386530;32;20049;-51
2022/01/29 13:50:46;;;;;;;69.68;13.80;;;;;;;;;;4387547;32;20038;-51
2022/01/29 13:53:16;;;;;;;76.15;14.15;;;;;;;;;;4379309;32;20035;-51
2022/01/29 13:56:03;;;;;;;77.22;13.98;;;;;;;;;;4374935;32;20453;-52
2022/01/29 13:58:51;;;;;;;70.40;13.43;;;;;;;;;;4381544;32;20159;-51
2022/01/29 14:01:46;;;;;;;76.32;14.48;;;;;;;;;;4377738;32;20063;-51
2022/01/29 14:04:28;;;;;;;84.07;14.68;;;;;;;;;;4385734;32;20047;-50
2022/01/29 14:06:59;;;;;;;75.22;14.52;;;;;;;;;;4374035;32;20043;-51
2022/01/29 14:09:46;;;;;;;86.82;15.35;;;;;;;;;;4379694;32;20055;-52
2022/01/29 14:12:14;;;;;;;73.55;13.62;;;;;;;;;;4387498;32;20508;-50
2022/01/29 14:14:43;;;;;;;70.62;14.05;;;;;;;;;;4381623;32;20043;-52
2022/01/29 14:17:15;;;;;;;89.05;15.38;;;;;;;;;;4379836;32;20541;-51
2022/01/29 14:19:46;;;;;;;76.43;14.75;;;;;;;;;;4385225;32;20112;-52
2022/01/29 14:22:14;;;;;;;89.90;14.73;;;;;;;;;;4383660;32;20337;-54
2022/01/29 14:24:43;;;;;;;95.97;14.75;;;;;;;;;;4372755;32;20336;-51
2022/01/29 14:27:12;;;;;;;85.70;14.70;;;;;;;;;;4383354;32;20408;-51
2022/01/29 14:29:41;;;;;;;86.25;14.90;;;;;;;;;;4379565;32;20065;-51
2022/01/29 14:32:26;;;;;;;84.22;15.32;;;;;;;;;;4382019;32;20420;-51
2022/01/29 14:35:02;;;;;;;89.43;14.20;;;;;;;;;;4379335;32;20082;-50
2022/01/29 14:37:31;;;;;;;89.37;13.82;;;;;;;;;;4380870;32;20089;-53
2022/01/29 14:39:59;;;;;;;80.45;15.50;;;;;;;;;;4378466;32;20424;-51
2022/01/29 14:42:34;;;;;;;87.62;14.15;;;;;;;;;;4387804;32;20035;-50
2022/01/29 14:45:04;;;;;;;86.97;14.98;;;;;;;;;;4378840;32;20066;-51
2022/01/29 14:47:32;;;;;;;89.87;14.40;;;;;;;;;;4379471;32;20179;-51
2022/01/29 14:50:02;;;;;;;98.70;17.20;;;;;;;;;;4375712;32;20480;-52
2022/01/29 14:52:31;;;;;;;74.00;14.45;;;;;;;;;;4385916;32;20074;-53
2022/01/29 14:55:00;;;;;;;75.37;14.35;;;;;;;;;;4379204;32;20043;-51
2022/01/29 14:57:29;;;;;;;79.40;15.13;;;;;;;;;;4389848;32;20030;-51